Time;durP1;ratioP1;P1;durP2;ratioP2;P2;SDS_P1;SDS_P2;PMS_P1;PMS_P2;Temp;Humidity;BMP_temperature;BMP_pressure;BME280_temperature;BME280_humidity;BME280_pressure;Samples;Min_cycle;Max_cycle;Signal;HPM_P1;HPM_P2
2022/01/24 00:01:01;;;;;;;47.17;23.25;;;;;;;;;;6220852;22;20015;-86
2022/01/24 00:03:27;;;;;;;36.65;21.85;;;;;;;;;;6246275;22;20059;-86
2022/01/24 00:05:53;;;;;;;35.47;20.40;;;;;;;;;;6222239;22;20030;-86
2022/01/24 00:08:20;;;;;;;30.52;21.35;;;;;;;;;;6221458;22;20015;-86
2022/01/24 00:10:47;;;;;;;34.92;21.17;;;;;;;;;;6221072;22;20025;-86
2022/01/24 00:14:10;;;;;;;30.67;19.88;;;;;;;;;;6221169;22;20026;-86
2022/01/24 00:26:51;;;;;;;44.83;21.13;;;;;;;;;;6251014;22;20093;-86
2022/01/24 00:29:19;;;;;;;35.28;20.52;;;;;;;;;;6246607;22;20031;-86
2022/01/24 00:31:46;;;;;;;32.35;19.10;;;;;;;;;;6219989;22;20091;-86
2022/01/24 00:34:12;;;;;;;36.95;19.55;;;;;;;;;;6220681;22;20020;-86
2022/01/24 00:36:39;;;;;;;30.75;17.73;;;;;;;;;;6219983;22;20039;-86
2022/01/24 00:39:05;;;;;;;38.15;20.42;;;;;;;;;;6220976;22;20035;-86
2022/01/24 00:41:37;;;;;;;32.88;17.73;;;;;;;;;;6219794;22;20023;-86
2022/01/24 00:46:54;;;;;;;32.45;17.98;;;;;;;;;;6250196;22;20026;-86
2022/01/24 00:49:42;;;;;;;33.65;19.40;;;;;;;;;;6245879;22;20023;-86
2022/01/24 00:54:54;;;;;;;28.88;17.17;;;;;;;;;;6250401;22;20019;-86
2022/01/24 00:57:20;;;;;;;34.10;18.83;;;;;;;;;;6246355;22;20050;-86
2022/01/24 00:59:49;;;;;;;35.22;18.65;;;;;;;;;;6218678;22;20059;-86
2022/01/24 01:02:16;;;;;;;34.22;19.40;;;;;;;;;;6245266;22;20099;-86
2022/01/24 01:07:52;;;;;;;31.48;18.10;;;;;;;;;;6245675;22;20019;-86
2022/01/24 01:18:20;;;;;;;36.88;18.50;;;;;;;;;;6248208;22;20507;-85
2022/01/24 01:21:08;;;;;;;44.35;19.75;;;;;;;;;;6218243;22;20098;-86
2022/01/24 01:23:36;;;;;;;36.22;18.73;;;;;;;;;;6223085;22;20015;-86
2022/01/24 01:26:06;;;;;;;37.47;18.65;;;;;;;;;;6219579;22;20055;-86
2022/01/24 01:28:32;;;;;;;40.33;18.90;;;;;;;;;;6220891;22;20389;-86
2022/01/24 01:31:03;;;;;;;34.10;18.20;;;;;;;;;;6219424;22;20042;-86
2022/01/24 01:33:43;;;;;;;34.75;16.85;;;;;;;;;;6221071;22;20039;-85
2022/01/24 01:36:23;;;;;;;39.58;17.60;;;;;;;;;;6249566;22;20020;-86
2022/01/24 01:39:31;;;;;;;38.75;17.85;;;;;;;;;;6223654;22;20019;-86
2022/01/24 01:55:40;;;;;;;37.38;15.68;;;;;;;;;;6246362;22;20019;-86
2022/01/24 01:58:10;;;;;;;34.63;15.48;;;;;;;;;;6220280;22;20094;-86
2022/01/24 02:00:37;;;;;;;35.75;15.75;;;;;;;;;;6220615;22;20090;-86
2022/01/24 02:03:03;;;;;;;34.03;15.57;;;;;;;;;;6219708;22;20019;-85
2022/01/24 02:05:29;;;;;;;39.17;15.95;;;;;;;;;;6221694;22;20445;-86
2022/01/24 02:07:55;;;;;;;35.17;15.80;;;;;;;;;;6223075;22;20395;-86
2022/01/24 02:10:23;;;;;;;33.53;14.85;;;;;;;;;;6221103;22;20016;-86
2022/01/24 02:12:49;;;;;;;34.83;14.80;;;;;;;;;;6221071;22;20083;-86
2022/01/24 02:15:24;;;;;;;33.03;15.13;;;;;;;;;;6221404;22;20026;-86
2022/01/24 02:25:48;;;;;;;30.48;13.57;;;;;;;;;;6246566;22;20016;-86
2022/01/24 02:28:16;;;;;;;26.08;13.70;;;;;;;;;;6246292;22;20087;-86
2022/01/24 02:31:18;;;;;;;32.35;14.38;;;;;;;;;;6221190;22;20015;-86
2022/01/24 02:33:46;;;;;;;30.58;13.13;;;;;;;;;;6254216;22;20463;-86
2022/01/24 02:36:12;;;;;;;57.17;16.30;;;;;;;;;;6221549;22;20080;-86
2022/01/24 02:38:49;;;;;;;37.42;16.15;;;;;;;;;;6221701;22;20015;-85
2022/01/24 02:49:27;;;;;;;38.40;15.85;;;;;;;;;;6249524;22;20015;-85
2022/01/24 02:52:13;;;;;;;75.55;17.75;;;;;;;;;;6246545;22;20035;-86
2022/01/24 02:54:40;;;;;;;62.00;15.75;;;;;;;;;;6271535;22;20018;-86
2022/01/24 02:57:07;;;;;;;53.67;15.38;;;;;;;;;;6220861;22;20073;-86
2022/01/24 02:59:33;;;;;;;89.05;18.05;;;;;;;;;;6246146;22;20086;-86
2022/01/24 03:01:59;;;;;;;46.65;15.68;;;;;;;;;;6221105;22;20016;-86
2022/01/24 03:04:25;;;;;;;43.08;14.88;;;;;;;;;;6220946;22;20018;-86
2022/01/24 03:06:51;;;;;;;45.17;13.55;;;;;;;;;;6221094;22;20020;-87
2022/01/24 03:09:17;;;;;;;40.08;12.75;;;;;;;;;;6247398;22;20020;-86
2022/01/24 03:12:03;;;;;;;42.40;13.63;;;;;;;;;;6219492;22;20031;-87
2022/01/24 03:14:32;;;;;;;33.25;11.27;;;;;;;;;;6225537;22;20033;-87
2022/01/24 03:16:58;;;;;;;33.20;10.90;;;;;;;;;;6220381;22;20077;-86
2022/01/24 03:19:24;;;;;;;24.05;9.23;;;;;;;;;;6246089;22;20016;-87
2022/01/24 03:21:50;;;;;;;28.27;9.93;;;;;;;;;;6221246;22;20015;-87
2022/01/24 03:24:16;;;;;;;25.17;9.90;;;;;;;;;;6220416;22;20049;-87
2022/01/24 03:26:42;;;;;;;26.92;9.85;;;;;;;;;;6220121;22;20395;-87
2022/01/24 03:29:08;;;;;;;52.33;11.38;;;;;;;;;;6220611;22;20042;-87
2022/01/24 03:31:35;;;;;;;40.83;10.45;;;;;;;;;;6220002;22;20419;-86
2022/01/24 03:34:02;;;;;;;28.67;9.95;;;;;;;;;;6245232;22;20353;-86
2022/01/24 03:36:28;;;;;;;38.08;11.40;;;;;;;;;;6245685;22;20492;-85
2022/01/24 03:38:54;;;;;;;26.60;8.93;;;;;;;;;;6221049;22;20016;-85
2022/01/24 03:41:20;;;;;;;24.70;9.07;;;;;;;;;;6220653;22;20074;-86
2022/01/24 03:43:46;;;;;;;38.83;10.07;;;;;;;;;;6245630;22;20036;-85
2022/01/24 03:46:24;;;;;;;24.10;9.57;;;;;;;;;;6220165;22;20387;-85
2022/01/24 03:48:54;;;;;;;34.30;9.82;;;;;;;;;;6223212;22;20398;-86
2022/01/24 03:51:21;;;;;;;30.60;9.00;;;;;;;;;;6220577;22;20019;-85
2022/01/24 03:53:48;;;;;;;30.33;9.90;;;;;;;;;;6244897;22;20406;-86
2022/01/24 03:56:14;;;;;;;42.35;11.88;;;;;;;;;;6219510;22;20019;-85
2022/01/24 03:58:41;;;;;;;30.13;10.15;;;;;;;;;;6219489;22;20388;-86
2022/01/24 04:01:08;;;;;;;27.35;11.52;;;;;;;;;;6219073;22;20446;-86
2022/01/24 04:03:35;;;;;;;31.17;12.00;;;;;;;;;;6219933;22;20069;-86
2022/01/24 04:06:01;;;;;;;33.90;12.32;;;;;;;;;;6244049;22;20341;-86
2022/01/24 04:08:27;;;;;;;30.55;11.25;;;;;;;;;;6219539;22;20015;-85
2022/01/24 04:10:55;;;;;;;34.08;12.73;;;;;;;;;;6219755;22;20045;-86
2022/01/24 04:13:44;;;;;;;33.45;13.00;;;;;;;;;;6220016;22;20035;-85
2022/01/24 04:18:47;;;;;;;98.10;17.45;;;;;;;;;;6244605;22;20020;-85
2022/01/24 04:21:32;;;;;;;45.08;14.82;;;;;;;;;;6221537;22;20020;-85
2022/01/24 04:24:06;;;;;;;76.10;17.00;;;;;;;;;;6223020;22;20349;-85
2022/01/24 04:26:33;;;;;;;133.80;18.23;;;;;;;;;;6220549;22;20015;-86
2022/01/24 04:29:00;;;;;;;260.48;26.45;;;;;;;;;;6218895;22;20019;-85
2022/01/24 04:31:27;;;;;;;143.95;21.48;;;;;;;;;;6219445;22;20012;-86
2022/01/24 04:33:53;;;;;;;266.52;26.05;;;;;;;;;;6220001;22;20357;-85
2022/01/24 04:36:20;;;;;;;133.80;19.83;;;;;;;;;;6217851;22;20198;-85
2022/01/24 04:38:47;;;;;;;173.40;23.40;;;;;;;;;;6218139;22;20209;-85
2022/01/24 04:41:22;;;;;;;60.42;17.40;;;;;;;;;;6218501;22;20441;-85
2022/01/24 04:51:53;;;;;;;53.05;17.42;;;;;;;;;;6248476;22;20065;-85
2022/01/24 04:57:04;;;;;;;42.35;16.63;;;;;;;;;;6248575;22;20367;-85
2022/01/24 04:59:30;;;;;;;41.33;16.40;;;;;;;;;;6218516;22;20023;-85
2022/01/24 05:01:55;;;;;;;39.63;16.92;;;;;;;;;;6218367;22;20014;-86
2022/01/24 05:04:21;;;;;;;38.45;17.33;;;;;;;;;;6219538;22;20011;-86
2022/01/24 05:06:47;;;;;;;41.30;17.42;;;;;;;;;;6244792;22;20472;-85
2022/01/24 05:09:12;;;;;;;39.08;18.23;;;;;;;;;;6219240;22;20081;-85
2022/01/24 05:11:49;;;;;;;52.42;25.90;;;;;;;;;;6218297;22;20050;-85
2022/01/24 05:25:14;;;;;;;47.57;27.17;;;;;;;;;;6249016;22;20503;-86
2022/01/24 05:27:40;;;;;;;46.72;25.52;;;;;;;;;;6244082;22;20020;-85
2022/01/24 05:30:06;;;;;;;58.55;32.05;;;;;;;;;;6219731;22;20019;-85
2022/01/24 05:32:32;;;;;;;57.08;31.42;;;;;;;;;;6219190;22;20353;-86
2022/01/24 05:34:58;;;;;;;54.60;29.67;;;;;;;;;;6251163;22;20024;-85
2022/01/24 05:37:23;;;;;;;41.83;22.60;;;;;;;;;;6246009;22;20085;-85
2022/01/24 05:39:49;;;;;;;39.47;19.38;;;;;;;;;;6223372;22;20043;-85
2022/01/24 05:42:18;;;;;;;40.67;20.40;;;;;;;;;;6222257;22;20102;-85
2022/01/24 05:44:44;;;;;;;34.65;18.20;;;;;;;;;;6222613;22;20015;-85
2022/01/24 05:47:10;;;;;;;37.30;17.55;;;;;;;;;;6221170;22;20020;-86
2022/01/24 05:49:36;;;;;;;33.47;19.02;;;;;;;;;;6222069;22;20391;-85
2022/01/24 05:52:03;;;;;;;44.47;23.67;;;;;;;;;;6246930;22;20040;-86
2022/01/24 05:54:30;;;;;;;57.72;28.25;;;;;;;;;;6222255;22;20016;-86
2022/01/24 05:56:56;;;;;;;72.32;39.40;;;;;;;;;;6224021;22;20019;-86
2022/01/24 05:59:22;;;;;;;72.25;41.72;;;;;;;;;;6222310;22;20437;-85
2022/01/24 06:01:47;;;;;;;51.17;25.95;;;;;;;;;;6247395;22;20026;-86
2022/01/24 06:04:13;;;;;;;44.13;23.05;;;;;;;;;;6222190;22;20020;-86
2022/01/24 06:06:39;;;;;;;36.13;18.30;;;;;;;;;;6245825;22;20502;-86
2022/01/24 06:09:04;;;;;;;33.75;17.13;;;;;;;;;;6246088;22;20070;-85
2022/01/24 06:11:30;;;;;;;38.35;17.92;;;;;;;;;;6222965;22;20019;-85
2022/01/24 06:13:57;;;;;;;37.08;19.60;;;;;;;;;;6222666;22;20018;-85
2022/01/24 06:16:23;;;;;;;40.85;22.33;;;;;;;;;;6223004;22;20035;-85
2022/01/24 06:18:49;;;;;;;46.10;21.58;;;;;;;;;;6251363;22;20020;-86
2022/01/24 06:21:15;;;;;;;40.25;20.63;;;;;;;;;;6221888;22;20027;-86
2022/01/24 06:23:40;;;;;;;39.25;19.90;;;;;;;;;;6246439;22;20453;-85
2022/01/24 06:26:06;;;;;;;43.42;21.42;;;;;;;;;;6246657;22;20637;-86
2022/01/24 06:28:32;;;;;;;42.90;23.40;;;;;;;;;;6245236;22;20407;-86
2022/01/24 06:30:58;;;;;;;44.50;24.23;;;;;;;;;;6220545;22;20069;-86
2022/01/24 06:33:25;;;;;;;42.83;22.15;;;;;;;;;;6222637;22;20491;-86
2022/01/24 06:35:50;;;;;;;37.38;21.33;;;;;;;;;;6220787;22;20015;-86
2022/01/24 06:38:16;;;;;;;37.30;19.90;;;;;;;;;;6247437;22;20043;-84
2022/01/24 06:40:42;;;;;;;41.22;20.58;;;;;;;;;;6221321;22;20015;-85
2022/01/24 06:43:07;;;;;;;38.35;21.02;;;;;;;;;;6221736;22;20023;-84
2022/01/24 06:45:33;;;;;;;42.40;19.73;;;;;;;;;;6221344;22;20016;-84
2022/01/24 06:47:59;;;;;;;43.53;20.08;;;;;;;;;;6222038;22;20327;-84
2022/01/24 06:50:25;;;;;;;48.35;20.13;;;;;;;;;;6222826;22;20016;-85
2022/01/24 06:52:50;;;;;;;49.85;19.70;;;;;;;;;;6222248;22;20420;-84
2022/01/24 06:55:16;;;;;;;41.78;18.73;;;;;;;;;;6221862;22;20090;-85
2022/01/24 06:57:42;;;;;;;42.92;18.70;;;;;;;;;;6221195;22;20503;-84
2022/01/24 07:00:08;;;;;;;57.63;21.85;;;;;;;;;;6220112;22;20019;-84
2022/01/24 07:02:34;;;;;;;52.45;19.92;;;;;;;;;;6220752;22;20087;-85
2022/01/24 07:05:00;;;;;;;55.58;22.25;;;;;;;;;;6221687;22;20016;-85
2022/01/24 07:07:25;;;;;;;39.63;19.55;;;;;;;;;;6221252;22;20071;-85
2022/01/24 07:09:52;;;;;;;45.15;21.13;;;;;;;;;;6220081;22;20055;-85
2022/01/24 07:12:17;;;;;;;53.95;22.92;;;;;;;;;;6271625;22;20356;-85
2022/01/24 07:14:44;;;;;;;91.85;28.08;;;;;;;;;;6220069;22;20024;-85
2022/01/24 07:17:28;;;;;;;70.40;24.38;;;;;;;;;;6219395;22;20483;-85
2022/01/24 07:19:57;;;;;;;48.58;20.58;;;;;;;;;;6225151;22;20042;-85
2022/01/24 07:22:23;;;;;;;49.47;21.05;;;;;;;;;;6213904;22;20016;-81
2022/01/24 07:24:48;;;;;;;45.42;20.23;;;;;;;;;;6214702;22;20081;-81
2022/01/24 07:27:14;;;;;;;40.92;20.83;;;;;;;;;;6243612;22;20484;-84
2022/01/24 07:29:40;;;;;;;49.28;22.10;;;;;;;;;;6214482;22;20403;-81
2022/01/24 07:32:07;;;;;;;40.35;20.67;;;;;;;;;;6216000;22;20496;-81
2022/01/24 07:34:34;;;;;;;42.28;20.90;;;;;;;;;;6218278;22;20015;-82
2022/01/24 07:37:00;;;;;;;40.20;20.95;;;;;;;;;;6218712;22;20461;-81
2022/01/24 07:39:26;;;;;;;43.00;21.98;;;;;;;;;;6218099;22;20011;-82
2022/01/24 07:41:52;;;;;;;34.42;18.65;;;;;;;;;;6217449;22;20481;-81
2022/01/24 07:44:22;;;;;;;41.00;19.33;;;;;;;;;;6217877;22;20046;-81
2022/01/24 07:46:49;;;;;;;37.60;18.98;;;;;;;;;;6217301;22;20062;-82
2022/01/24 07:49:15;;;;;;;39.65;21.08;;;;;;;;;;6216371;22;20102;-81
2022/01/24 07:51:41;;;;;;;37.47;19.73;;;;;;;;;;6216039;22;20094;-81
2022/01/24 07:54:08;;;;;;;29.52;19.27;;;;;;;;;;6241771;22;20501;-82
2022/01/24 07:56:34;;;;;;;33.92;19.40;;;;;;;;;;6237965;22;20078;-82
2022/01/24 07:59:00;;;;;;;28.45;18.30;;;;;;;;;;6211678;22;20027;-81
2022/01/24 08:01:26;;;;;;;26.63;16.73;;;;;;;;;;6219074;22;20085;-83
2022/01/24 08:03:52;;;;;;;29.83;18.88;;;;;;;;;;6244824;22;20019;-83
2022/01/24 08:06:18;;;;;;;30.95;18.95;;;;;;;;;;6217685;22;20047;-82
2022/01/24 08:08:44;;;;;;;33.78;18.73;;;;;;;;;;6244054;22;20357;-82
2022/01/24 08:11:10;;;;;;;31.58;18.05;;;;;;;;;;6218547;22;20022;-82
2022/01/24 08:13:37;;;;;;;32.05;20.23;;;;;;;;;;6218401;22;20504;-81
2022/01/24 08:16:03;;;;;;;28.83;17.45;;;;;;;;;;6217895;22;20022;-81
2022/01/24 08:18:28;;;;;;;28.25;18.25;;;;;;;;;;6244137;22;20019;-81
2022/01/24 08:20:54;;;;;;;36.70;17.95;;;;;;;;;;6219257;22;20015;-82
2022/01/24 08:23:20;;;;;;;27.75;18.17;;;;;;;;;;6244384;22;20090;-82
2022/01/24 08:25:46;;;;;;;28.48;18.25;;;;;;;;;;6219154;22;20023;-82
2022/01/24 08:28:12;;;;;;;29.48;17.20;;;;;;;;;;6211824;22;20082;-83
2022/01/24 08:30:38;;;;;;;25.70;17.35;;;;;;;;;;6243139;22;20031;-82
2022/01/24 08:33:06;;;;;;;22.00;15.57;;;;;;;;;;6216492;22;20050;-83
2022/01/24 08:35:32;;;;;;;26.08;16.17;;;;;;;;;;6219449;22;20039;-83
2022/01/24 08:37:58;;;;;;;23.35;15.13;;;;;;;;;;6243617;22;20016;-83
2022/01/24 08:40:26;;;;;;;24.90;15.35;;;;;;;;;;6220269;22;20614;-83
2022/01/24 08:43:03;;;;;;;23.65;16.02;;;;;;;;;;6219658;22;20016;-83
2022/01/24 08:45:52;;;;;;;23.83;16.98;;;;;;;;;;6219731;22;20020;-82
2022/01/24 08:48:21;;;;;;;23.13;15.95;;;;;;;;;;6222639;22;20110;-84
2022/01/24 08:50:49;;;;;;;26.05;16.02;;;;;;;;;;6243709;22;20288;-82
2022/01/24 08:53:15;;;;;;;27.25;15.95;;;;;;;;;;6216415;22;20015;-83
2022/01/24 08:55:41;;;;;;;22.80;15.98;;;;;;;;;;6217490;22;20484;-82
2022/01/24 08:58:08;;;;;;;23.33;14.32;;;;;;;;;;6217608;22;20532;-83
2022/01/24 09:00:34;;;;;;;23.00;14.93;;;;;;;;;;6241532;22;20444;-83
2022/01/24 09:03:00;;;;;;;25.35;15.48;;;;;;;;;;6216976;22;20047;-83
2022/01/24 09:05:27;;;;;;;21.25;14.25;;;;;;;;;;6218054;22;20445;-84
2022/01/24 09:07:53;;;;;;;20.05;12.73;;;;;;;;;;6194656;22;20380;-84
2022/01/24 09:10:20;;;;;;;23.55;12.85;;;;;;;;;;6215044;22;20019;-83
2022/01/24 09:12:46;;;;;;;19.75;12.40;;;;;;;;;;6218496;22;20020;-83
2022/01/24 09:15:14;;;;;;;17.65;11.57;;;;;;;;;;6220726;22;20015;-83
2022/01/24 09:17:39;;;;;;;20.17;10.68;;;;;;;;;;6220674;22;20124;-84
2022/01/24 09:20:06;;;;;;;15.65;10.30;;;;;;;;;;6221679;22;20012;-83
2022/01/24 09:22:34;;;;;;;17.42;9.75;;;;;;;;;;6220116;22;20008;-83
2022/01/24 09:25:00;;;;;;;14.52;9.75;;;;;;;;;;6220165;22;20015;-84
2022/01/24 09:27:26;;;;;;;17.77;11.18;;;;;;;;;;6245734;22;20012;-83
2022/01/24 09:29:51;;;;;;;19.30;12.73;;;;;;;;;;6246966;22;20070;-83
2022/01/24 09:32:17;;;;;;;20.40;14.23;;;;;;;;;;6219479;22;20026;-84
2022/01/24 09:34:43;;;;;;;21.17;13.98;;;;;;;;;;6220805;22;20110;-84
2022/01/24 09:37:09;;;;;;;19.38;12.25;;;;;;;;;;6221237;22;20019;-83
2022/01/24 09:39:35;;;;;;;15.55;9.85;;;;;;;;;;6219344;22;20083;-84
2022/01/24 09:42:00;;;;;;;11.93;8.73;;;;;;;;;;6218849;22;20035;-84
2022/01/24 09:44:26;;;;;;;14.82;10.80;;;;;;;;;;6219395;22;20019;-83
2022/01/24 09:46:52;;;;;;;15.35;10.93;;;;;;;;;;6199157;22;20577;-84
2022/01/24 09:49:17;;;;;;;16.88;11.07;;;;;;;;;;6243920;22;20374;-84
2022/01/24 09:51:44;;;;;;;16.17;10.43;;;;;;;;;;6217729;22;20016;-83
2022/01/24 09:54:12;;;;;;;11.95;8.65;;;;;;;;;;6218108;22;20063;-83
2022/01/24 09:56:39;;;;;;;11.43;8.55;;;;;;;;;;6214531;22;20073;-83
2022/01/24 09:59:05;;;;;;;12.57;8.02;;;;;;;;;;6217882;22;20097;-83
2022/01/24 10:01:33;;;;;;;10.65;6.80;;;;;;;;;;6218415;22;20020;-83
2022/01/24 10:04:10;;;;;;;7.85;5.28;;;;;;;;;;6218918;22;20415;-84
2022/01/24 10:07:25;;;;;;;1.98;1.65;;;;;;;;;;6243125;22;20020;-84
2022/01/24 10:09:54;;;;;;;1.88;1.35;;;;;;;;;;6217555;22;20015;-84
2022/01/24 10:18:00;;;;;;;5.82;3.97;;;;;;;;;;6233182;22;20038;-83
2022/01/24 10:20:32;;;;;;;4.22;3.15;;;;;;;;;;6206635;22;20452;-84
2022/01/24 10:23:11;;;;;;;5.65;3.92;;;;;;;;;;6217405;22;20043;-84
2022/01/24 10:25:47;;;;;;;5.07;3.78;;;;;;;;;;6267306;22;20019;-84
2022/01/24 10:28:15;;;;;;;;;;;;;;;;;;6216518;22;20065;-84
2022/01/24 10:30:41;;;;;;;7.22;4.35;;;;;;;;;;6260881;22;19942;-84
2022/01/24 10:33:14;;;;;;;7.10;3.38;;;;;;;;;;6196277;22;20044;-84
2022/01/24 10:35:58;;;;;;;5.82;3.88;;;;;;;;;;6175130;22;20546;-84
2022/01/24 10:38:41;;;;;;;5.35;4.18;;;;;;;;;;6148578;22;20031;-82
2022/01/24 10:41:25;;;;;;;6.20;3.72;;;;;;;;;;6222487;22;20472;-81
2022/01/24 10:43:56;;;;;;;9.48;5.47;;;;;;;;;;6243729;22;20035;-83
2022/01/24 10:56:54;;;;;;;8.35;5.50;;;;;;;;;;5992937;23;20147;-82
2022/01/24 11:12:45;;;;;;;;;;;;;;;;;;;;;
2022/01/24 11:15:32;;;;;;;5.45;2.80;;;;;;;;;;5917223;24;20109;-84
2022/01/24 11:17:59;;;;;;;4.28;2.67;;;;;;;;;;5989190;23;20019;-81
2022/01/24 11:20:33;;;;;;;4.68;2.90;;;;;;;;;;6003915;23;20101;-82
2022/01/24 11:23:24;;;;;;;4.00;3.60;;;;;;;;;;6045322;23;20022;-82
2022/01/24 11:26:04;;;;;;;6.25;3.85;;;;;;;;;;6023157;23;20023;-82
2022/01/24 11:28:34;;;;;;;6.45;3.45;;;;;;;;;;6031975;23;20070;-82
2022/01/24 11:31:23;;;;;;;3.88;3.00;;;;;;;;;;6064081;23;20018;-82
2022/01/24 11:34:42;;;;;;;4.30;2.83;;;;;;;;;;6020894;23;20077;-81
2022/01/24 11:37:11;;;;;;;4.05;2.83;;;;;;;;;;6172094;22;20019;-81
2022/01/24 11:39:50;;;;;;;3.53;3.22;;;;;;;;;;6230069;22;20043;-82
2022/01/24 11:42:40;;;;;;;3.75;2.90;;;;;;;;;;6147670;22;20076;-82
2022/01/24 11:45:14;;;;;;;4.05;3.20;;;;;;;;;;6189488;22;20065;-82
2022/01/24 11:48:02;;;;;;;4.93;3.50;;;;;;;;;;6208979;22;20071;-83
2022/01/24 11:50:52;;;;;;;4.53;3.40;;;;;;;;;;6199201;22;20019;-82
2022/01/24 11:53:32;;;;;;;4.60;3.30;;;;;;;;;;6121630;23;20136;-83
2022/01/24 11:56:36;;;;;;;6.95;4.50;;;;;;;;;;6171401;22;20020;-82
2022/01/24 11:59:18;;;;;;;4.10;3.28;;;;;;;;;;6194714;22;20039;-82
2022/01/24 12:02:12;;;;;;;3.67;2.72;;;;;;;;;;6158008;22;20022;-82
2022/01/24 12:05:16;;;;;;;3.45;2.10;;;;;;;;;;6181411;22;20026;-82
2022/01/24 12:08:07;;;;;;;2.45;1.52;;;;;;;;;;6206225;22;20031;-82
2022/01/24 12:10:36;;;;;;;2.33;1.52;;;;;;;;;;6241674;22;20689;-81
2022/01/24 12:13:18;;;;;;;3.05;1.98;;;;;;;;;;6244289;22;20430;-82
2022/01/24 12:15:43;;;;;;;1.90;1.70;;;;;;;;;;6246378;22;20077;-82
2022/01/24 12:18:22;;;;;;;2.63;2.00;;;;;;;;;;6245044;22;20019;-82
2022/01/24 12:20:54;;;;;;;3.28;2.30;;;;;;;;;;6221499;22;20476;-82
2022/01/24 12:23:21;;;;;;;2.38;2.17;;;;;;;;;;6221240;22;20032;-82
2022/01/24 12:25:58;;;;;;;2.88;1.80;;;;;;;;;;6246881;22;20047;-82
2022/01/24 12:28:26;;;;;;;2.83;2.30;;;;;;;;;;6223395;22;20320;-82
2022/01/24 12:30:59;;;;;;;2.95;2.15;;;;;;;;;;6222379;22;20046;-81
2022/01/24 12:33:44;;;;;;;1.70;1.58;;;;;;;;;;6219637;22;20020;-82
2022/01/24 12:36:12;;;;;;;2.75;1.73;;;;;;;;;;6220821;22;20106;-82
2022/01/24 12:38:41;;;;;;;2.35;1.98;;;;;;;;;;6221478;22;20016;-82
2022/01/24 12:41:22;;;;;;;2.92;2.15;;;;;;;;;;6247585;22;20073;-82
2022/01/24 12:44:09;;;;;;;3.05;2.40;;;;;;;;;;6219150;22;20017;-83
2022/01/24 12:46:35;;;;;;;3.65;2.22;;;;;;;;;;6218945;22;20095;-82
2022/01/24 12:49:06;;;;;;;4.47;2.50;;;;;;;;;;6216482;22;20035;-82
2022/01/24 12:51:52;;;;;;;4.25;2.88;;;;;;;;;;6239473;22;20020;-83
2022/01/24 12:54:52;;;;;;;4.05;2.63;;;;;;;;;;6183743;22;20392;-84
2022/01/24 12:57:37;;;;;;;6.30;4.68;;;;;;;;;;6200105;22;20022;-84
2022/01/24 13:00:59;;;;;;;5.43;3.50;;;;;;;;;;6163563;22;20027;-84
2022/01/24 13:13:51;;;;;;;5.63;3.00;;;;;;;;;;5929612;23;20027;-84
2022/01/24 13:26:48;;;;;;;5.47;4.38;;;;;;;;;;5883339;23;20013;-82
2022/01/24 13:29:27;;;;;;;4.28;3.40;;;;;;;;;;5964903;23;20097;-82
2022/01/24 13:31:59;;;;;;;3.72;3.42;;;;;;;;;;6248199;22;20027;-82
2022/01/24 13:34:25;;;;;;;6.20;3.03;;;;;;;;;;6200256;22;20028;-82
2022/01/24 13:36:50;;;;;;;3.83;3.08;;;;;;;;;;6245168;22;25285;-83
2022/01/24 13:39:16;;;;;;;5.90;3.88;;;;;;;;;;6242849;22;20023;-82
2022/01/24 13:41:45;;;;;;;4.03;3.20;;;;;;;;;;6217089;22;20093;-84
2022/01/24 13:44:13;;;;;;;6.10;3.88;;;;;;;;;;6241876;22;20015;-83
2022/01/24 13:47:30;;;;;;;;;;;;;;;;;;;;;
2022/01/24 13:50:12;;;;;;;;;;;;;;;;;;;;;
2022/01/24 13:52:41;;;;;;;6.93;3.67;;;;;;;;;;6202757;22;20592;-82
2022/01/24 13:55:55;;;;;;;4.30;3.42;;;;;;;;;;6223171;22;20023;-84
2022/01/24 13:58:25;;;;;;;4.40;3.30;;;;;;;;;;6256404;22;20973;-82
2022/01/24 14:00:59;;;;;;;3.83;2.63;;;;;;;;;;6213949;22;20043;-84
2022/01/24 14:08:21;;;;;;;6.07;3.42;;;;;;;;;;5972558;23;20034;-84
2022/01/24 14:11:49;;;;;;;5.57;3.10;;;;;;;;;;6087330;23;20018;-83
2022/01/24 14:18:09;;;;;;;6.53;4.50;;;;;;;;;;6091549;23;20021;-84
2022/01/24 14:20:35;;;;;;;6.60;4.40;;;;;;;;;;6067521;23;20436;-82
2022/01/24 14:23:03;;;;;;;7.45;4.68;;;;;;;;;;6223813;22;20087;-82
2022/01/24 14:25:31;;;;;;;6.72;4.72;;;;;;;;;;6219236;22;20019;-82
2022/01/24 14:27:59;;;;;;;7.20;4.90;;;;;;;;;;6217903;22;20046;-82
2022/01/24 14:30:26;;;;;;;7.43;5.15;;;;;;;;;;6218940;22;20055;-82
2022/01/24 14:33:16;;;;;;;6.78;4.68;;;;;;;;;;6245391;22;20035;-82
2022/01/24 14:35:56;;;;;;;6.03;4.60;;;;;;;;;;6243361;22;20016;-82
2022/01/24 14:38:45;;;;;;;7.22;4.60;;;;;;;;;;6245702;22;20024;-82
2022/01/24 14:41:20;;;;;;;6.82;5.32;;;;;;;;;;6220346;22;20361;-82
2022/01/24 14:46:33;;;;;;;;;;;;;;;;;;6251227;22;20544;-82
2022/01/24 14:49:05;;;;;;;7.65;5.90;;;;;;;;;;6271657;22;19922;-82
2022/01/24 14:51:33;;;;;;;7.97;5.03;;;;;;;;;;6245513;22;20031;-82
2022/01/24 14:54:02;;;;;;;7.85;5.82;;;;;;;;;;6245888;22;20054;-82
2022/01/24 14:56:28;;;;;;;6.35;4.95;;;;;;;;;;6246890;22;20008;-82
2022/01/24 14:58:54;;;;;;;8.10;5.53;;;;;;;;;;6219858;22;20461;-82
2022/01/24 15:01:21;;;;;;;11.50;6.18;;;;;;;;;;6219505;22;20356;-83
2022/01/24 15:03:49;;;;;;;9.35;6.28;;;;;;;;;;6218797;22;20091;-83
2022/01/24 15:06:15;;;;;;;12.23;7.00;;;;;;;;;;6220432;22;20349;-83
2022/01/24 15:08:42;;;;;;;10.38;6.55;;;;;;;;;;6219588;22;20023;-83
2022/01/24 15:11:12;;;;;;;9.35;5.97;;;;;;;;;;6218224;22;20030;-82
2022/01/24 15:26:58;;;;;;;12.90;7.22;;;;;;;;;;6246089;22;20035;-83
2022/01/24 15:29:25;;;;;;;16.45;11.68;;;;;;;;;;6219372;22;20070;-83
2022/01/24 15:31:51;;;;;;;13.95;10.10;;;;;;;;;;6220008;22;20016;-82
2022/01/24 15:34:19;;;;;;;18.25;13.23;;;;;;;;;;6220903;22;20070;-83
2022/01/24 15:36:46;;;;;;;13.45;8.25;;;;;;;;;;6221770;22;20008;-83
2022/01/24 15:39:12;;;;;;;16.42;12.38;;;;;;;;;;6221288;22;20015;-82
2022/01/24 15:42:44;;;;;;;14.80;11.40;;;;;;;;;;6220855;22;20023;-82
2022/01/24 15:44:48;;;;;;;18.02;12.75;;;;;;;;;;6238906;22;20028;-83
2022/01/24 15:49:44;;;;;;;17.10;12.95;;;;;;;;;;6243531;22;20361;-82
2022/01/24 15:52:10;;;;;;;18.58;13.05;;;;;;;;;;6218798;22;20012;-83
2022/01/24 15:54:36;;;;;;;22.15;15.52;;;;;;;;;;6217475;22;20047;-82
2022/01/24 15:59:47;;;;;;;19.38;13.98;;;;;;;;;;6248204;22;20154;-82
2022/01/24 16:02:13;;;;;;;20.80;12.32;;;;;;;;;;6218249;22;20019;-82
2022/01/24 16:04:40;;;;;;;15.75;12.05;;;;;;;;;;6243378;22;20035;-82
2022/01/24 16:07:05;;;;;;;19.95;11.43;;;;;;;;;;6218793;22;20020;-82
2022/01/24 16:09:31;;;;;;;15.05;10.73;;;;;;;;;;6243977;22;20027;-82
2022/01/24 16:11:58;;;;;;;17.90;11.15;;;;;;;;;;6220089;22;20102;-84
2022/01/24 16:14:25;;;;;;;20.33;12.82;;;;;;;;;;6221876;22;20024;-84
2022/01/24 16:16:52;;;;;;;21.42;13.77;;;;;;;;;;6204916;22;20166;-84
2022/01/24 16:19:19;;;;;;;20.40;11.90;;;;;;;;;;6208870;22;20019;-83
2022/01/24 16:21:58;;;;;;;16.60;11.65;;;;;;;;;;6221450;22;20101;-83
2022/01/24 16:26:56;;;;;;;15.93;10.13;;;;;;;;;;6247863;22;20016;-83
2022/01/24 16:29:22;;;;;;;20.27;10.27;;;;;;;;;;6220619;22;20023;-82
2022/01/24 16:31:49;;;;;;;16.38;10.25;;;;;;;;;;6219936;22;20012;-83
2022/01/24 16:34:15;;;;;;;20.83;13.98;;;;;;;;;;6242093;22;20527;-83
2022/01/24 16:36:41;;;;;;;19.20;13.00;;;;;;;;;;6242958;22;20016;-83
2022/01/24 16:39:08;;;;;;;19.15;12.18;;;;;;;;;;6217056;22;20053;-82
2022/01/24 16:41:59;;;;;;;16.60;10.63;;;;;;;;;;6217002;22;20347;-82
2022/01/24 16:47:10;;;;;;;21.60;13.00;;;;;;;;;;6244293;22;20008;-81
2022/01/24 16:49:41;;;;;;;19.65;12.63;;;;;;;;;;6217786;22;20016;-81
2022/01/24 16:52:08;;;;;;;21.98;12.98;;;;;;;;;;6241937;22;20012;-82
2022/01/24 16:54:35;;;;;;;24.50;13.70;;;;;;;;;;6216805;22;20078;-81
2022/01/24 16:57:02;;;;;;;28.45;18.40;;;;;;;;;;6217486;22;20020;-81
2022/01/24 16:59:30;;;;;;;20.75;14.07;;;;;;;;;;6216181;22;20012;-82
2022/01/24 17:01:56;;;;;;;24.52;13.23;;;;;;;;;;6242949;22;20016;-82
2022/01/24 17:04:22;;;;;;;21.45;12.23;;;;;;;;;;6217450;22;20020;-82
2022/01/24 17:06:49;;;;;;;20.50;11.45;;;;;;;;;;6217329;22;20012;-81
2022/01/24 17:09:14;;;;;;;21.65;11.60;;;;;;;;;;6217499;22;20026;-81
2022/01/24 17:11:44;;;;;;;19.92;11.30;;;;;;;;;;6217559;22;20011;-82
2022/01/24 17:14:13;;;;;;;22.40;15.00;;;;;;;;;;6218622;22;20050;-82
2022/01/24 17:16:39;;;;;;;19.10;12.68;;;;;;;;;;6218371;22;20090;-81
2022/01/24 17:19:05;;;;;;;26.30;16.02;;;;;;;;;;6218011;22;20443;-82
2022/01/24 17:21:32;;;;;;;25.05;13.57;;;;;;;;;;6243174;22;20452;-81
2022/01/24 17:23:58;;;;;;;23.40;13.82;;;;;;;;;;6217328;22;20020;-82
2022/01/24 17:26:24;;;;;;;27.48;16.42;;;;;;;;;;6217323;22;20046;-81
2022/01/24 17:28:49;;;;;;;21.63;13.52;;;;;;;;;;6216753;22;20546;-81
2022/01/24 17:31:15;;;;;;;26.15;14.00;;;;;;;;;;6218451;22;20026;-81
2022/01/24 17:33:41;;;;;;;23.25;13.88;;;;;;;;;;6218364;22;20077;-82
2022/01/24 17:36:08;;;;;;;24.80;14.38;;;;;;;;;;6219244;22;20042;-82